Time;durP1;ratioP1;P1;durP2;ratioP2;P2;SDS_P1;SDS_P2;PMS_P1;PMS_P2;Temp;Humidity;BMP_temperature;BMP_pressure;BME280_temperature;BME280_humidity;BME280_pressure;Samples;Min_cycle;Max_cycle;Signal;HPM_P1;HPM_P2
2022/09/12 00:02:25;;;;;;;10.98;8.35;;;13.50;99.90;;;;;;4998431;28;20046;-84
2022/09/12 00:04:50;;;;;;;11.57;8.50;;;13.50;99.90;;;;;;4980895;28;20052;-85
2022/09/12 00:07:16;;;;;;;13.85;9.98;;;13.50;99.90;;;;;;4999125;28;20045;-85
2022/09/12 00:09:42;;;;;;;11.77;9.45;;;13.50;99.90;;;;;;5016065;28;20125;-86
2022/09/12 00:12:08;;;;;;;13.25;10.40;;;13.50;99.90;;;;;;4997737;28;20046;-85
2022/09/12 00:14:34;;;;;;;12.55;10.38;;;13.50;99.90;;;;;;5002216;28;20054;-85
2022/09/12 00:17:00;;;;;;;11.75;10.43;;;13.40;99.90;;;;;;5006516;28;20077;-85
2022/09/12 00:19:27;;;;;;;13.93;11.52;;;13.40;99.90;;;;;;5011999;28;20081;-85
2022/09/12 00:21:53;;;;;;;15.68;11.23;;;13.40;99.90;;;;;;4979267;28;20130;-85
2022/09/12 00:24:19;;;;;;;12.40;9.98;;;13.40;99.90;;;;;;4996538;28;20200;-85
2022/09/12 00:26:45;;;;;;;19.00;11.70;;;13.40;99.90;;;;;;4998010;28;20542;-85
2022/09/12 00:29:16;;;;;;;14.13;11.07;;;13.40;99.90;;;;;;4995327;28;20104;-84
2022/09/12 00:31:42;;;;;;;;;;;13.40;99.90;;;;;;5011556;28;20049;-84
2022/09/12 00:34:08;;;;;;;18.83;11.75;;;13.30;99.90;;;;;;4996611;28;19925;-85
2022/09/12 00:36:35;;;;;;;17.10;13.60;;;13.30;99.90;;;;;;4995412;28;20058;-84
2022/09/12 00:39:04;;;;;;;14.60;12.90;;;13.30;99.90;;;;;;4981010;28;20050;-85
2022/09/12 00:41:34;;;;;;;22.77;13.93;;;13.30;99.90;;;;;;4992104;28;20050;-86
2022/09/12 00:44:23;;;;;;;16.60;12.95;;;13.20;99.90;;;;;;5000664;28;20185;-85
2022/09/12 00:47:00;;;;;;;17.55;13.70;;;13.30;99.90;;;;;;4997822;28;20057;-84
2022/09/12 00:49:29;;;;;;;18.15;13.73;;;13.20;99.90;;;;;;4998689;28;20061;-85
2022/09/12 00:52:04;;;;;;;18.08;14.13;;;13.20;99.90;;;;;;4983042;28;20062;-84
2022/09/12 00:54:37;;;;;;;16.88;14.52;;;13.20;99.90;;;;;;4987648;28;20045;-84
2022/09/12 00:57:07;;;;;;;18.10;14.65;;;13.20;99.90;;;;;;5013069;28;20077;-84
2022/09/12 01:00:15;;;;;;;20.85;16.10;;;13.20;99.90;;;;;;4999552;28;20463;-85
2022/09/12 01:02:48;;;;;;;20.83;16.23;;;13.20;99.90;;;;;;5004119;28;20463;-84
2022/09/12 01:05:14;;;;;;;21.08;16.05;;;13.10;99.90;;;;;;4994051;28;20045;-85
2022/09/12 01:07:41;;;;;;;21.23;16.20;;;13.10;99.90;;;;;;4994813;28;20057;-85
2022/09/12 01:10:08;;;;;;;19.02;16.85;;;13.10;99.90;;;;;;4999631;28;20080;-84
2022/09/12 01:12:38;;;;;;;23.33;18.13;;;13.20;99.90;;;;;;4997913;28;20054;-85
2022/09/12 01:15:04;;;;;;;25.63;18.88;;;13.10;99.90;;;;;;4996078;28;20117;-85
2022/09/12 01:17:43;;;;;;;28.73;21.58;;;13.20;99.90;;;;;;5000390;28;20046;-85
2022/09/12 01:20:35;;;;;;;33.67;22.23;;;13.20;99.90;;;;;;4992238;28;20081;-84
2022/09/12 01:23:10;;;;;;;38.15;26.33;;;13.20;99.90;;;;;;5009525;28;20507;-85
2022/09/12 01:25:55;;;;;;;35.70;23.95;;;13.20;99.90;;;;;;4996423;28;20443;-85
2022/09/12 01:28:34;;;;;;;31.67;23.08;;;13.30;99.90;;;;;;4999591;28;20069;-84
2022/09/12 01:31:12;;;;;;;34.00;25.33;;;13.30;99.90;;;;;;5000895;28;20050;-84
2022/09/12 01:33:47;;;;;;;31.65;23.73;;;13.30;99.90;;;;;;4998786;28;20207;-85
2022/09/12 01:36:28;;;;;;;28.50;21.80;;;13.30;99.90;;;;;;5003787;28;20095;-84
2022/09/12 01:39:18;;;;;;;34.05;24.85;;;13.30;99.90;;;;;;5014706;28;20483;-85
2022/09/12 01:41:54;;;;;;;48.50;27.27;;;13.30;99.90;;;;;;4984225;28;20071;-85
2022/09/12 01:44:58;;;;;;;32.17;23.90;;;13.30;99.90;;;;;;5012962;28;20089;-84
2022/09/12 01:47:40;;;;;;;23.58;17.92;;;13.30;99.90;;;;;;4989072;28;20415;-84
2022/09/12 01:50:20;;;;;;;29.65;22.15;;;13.30;99.90;;;;;;4999426;28;20412;-85
2022/09/12 01:52:54;;;;;;;33.67;24.67;;;13.40;99.90;;;;;;4958319;28;20066;-85
2022/09/12 01:55:26;;;;;;;29.65;21.92;;;13.40;99.90;;;;;;4986938;28;20442;-85
2022/09/12 01:58:16;;;;;;;39.40;25.63;;;13.40;99.90;;;;;;5007310;28;20408;-84
2022/09/12 02:01:07;;;;;;;33.53;24.05;;;13.40;99.90;;;;;;5010971;28;20050;-85
2022/09/12 02:03:53;;;;;;;33.25;24.27;;;13.40;99.90;;;;;;4993611;28;20408;-84
2022/09/12 02:06:26;;;;;;;30.33;22.48;;;13.40;99.90;;;;;;4993862;28;20079;-85
2022/09/12 02:08:57;;;;;;;35.55;25.02;;;13.30;99.90;;;;;;4994664;28;20133;-85
2022/09/12 02:11:23;;;;;;;41.65;27.13;;;13.30;99.90;;;;;;4999522;28;20050;-84
2022/09/12 02:14:17;;;;;;;32.67;23.15;;;13.30;99.90;;;;;;4995045;28;20065;-84
2022/09/12 02:16:47;;;;;;;37.83;24.45;;;13.40;99.90;;;;;;5009148;28;20038;-85
2022/09/12 02:19:15;;;;;;;28.15;22.20;;;13.30;99.90;;;;;;5002603;28;20491;-85
2022/09/12 02:21:46;;;;;;;37.03;24.83;;;13.30;99.90;;;;;;4985916;28;20136;-84
2022/09/12 02:24:14;;;;;;;36.88;26.83;;;13.30;99.90;;;;;;4995388;28;20042;-85
2022/09/12 02:26:49;;;;;;;41.80;27.63;;;13.30;99.90;;;;;;4965513;28;20056;-85
2022/09/12 02:29:15;;;;;;;32.92;24.20;;;13.30;99.90;;;;;;4995005;28;20053;-85
2022/09/12 02:32:05;;;;;;;38.20;24.75;;;13.30;99.90;;;;;;4997302;28;20042;-85
2022/09/12 02:34:48;;;;;;;48.00;29.52;;;13.30;99.90;;;;;;4979508;28;20062;-85
2022/09/12 02:37:43;;;;;;;39.95;26.02;;;13.30;99.90;;;;;;4965512;28;20046;-85
2022/09/12 02:40:08;;;;;;;40.58;26.98;;;13.30;99.90;;;;;;4999050;28;20104;-85
2022/09/12 02:42:36;;;;;;;42.42;27.92;;;13.20;99.90;;;;;;5013509;28;20049;-84
2022/09/12 02:45:02;;;;;;;48.35;28.90;;;13.20;99.90;;;;;;5012071;28;20506;-85
2022/09/12 02:47:55;;;;;;;47.25;29.30;;;13.20;99.90;;;;;;5012946;28;20046;-85
2022/09/12 02:50:21;;;;;;;36.53;26.27;;;13.30;99.90;;;;;;4975549;28;20138;-85
2022/09/12 02:52:47;;;;;;;49.35;30.02;;;13.20;99.90;;;;;;4998367;28;20121;-85
2022/09/12 02:55:13;;;;;;;35.40;23.50;;;13.20;99.90;;;;;;4977793;28;20467;-85
2022/09/12 02:57:39;;;;;;;43.05;27.90;;;13.20;99.90;;;;;;4990605;28;20046;-85
2022/09/12 03:00:06;;;;;;;30.52;23.77;;;13.20;99.90;;;;;;4990992;28;20105;-85
2022/09/12 03:03:03;;;;;;;38.40;26.20;;;13.20;99.90;;;;;;4978429;28;20496;-85
2022/09/12 03:05:36;;;;;;;41.80;27.58;;;13.20;99.90;;;;;;4969055;28;20499;-85
2022/09/12 03:08:32;;;;;;;41.35;27.30;;;13.10;99.90;;;;;;4983075;28;20062;-85
2022/09/12 03:11:35;;;;;;;44.85;28.92;;;13.10;99.90;;;;;;4976591;28;20455;-85
2022/09/12 03:14:08;;;;;;;52.55;31.30;;;13.10;99.90;;;;;;4992467;28;20046;-85
2022/09/12 03:16:54;;;;;;;31.83;22.05;;;13.00;99.90;;;;;;4986847;28;20049;-85
2022/09/12 03:19:39;;;;;;;40.72;27.92;;;13.00;99.90;;;;;;4992205;28;20093;-85
2022/09/12 03:22:27;;;;;;;40.97;27.48;;;13.10;99.90;;;;;;4997645;28;20051;-85
2022/09/12 03:25:12;;;;;;;42.85;29.05;;;12.90;99.90;;;;;;4989316;28;20046;-85
2022/09/12 03:28:00;;;;;;;43.03;28.92;;;12.90;99.90;;;;;;4999057;28;20105;-84
2022/09/12 03:30:26;;;;;;;39.15;27.20;;;12.90;99.90;;;;;;4981484;28;20062;-85
2022/09/12 03:32:54;;;;;;;45.30;29.48;;;12.90;99.90;;;;;;4997454;28;20389;-85
2022/09/12 03:35:23;;;;;;;48.65;30.05;;;12.90;99.90;;;;;;4996211;28;20429;-85
2022/09/12 03:37:50;;;;;;;45.45;28.58;;;12.90;99.90;;;;;;4995310;28;20082;-85
2022/09/12 03:40:16;;;;;;;45.80;29.65;;;12.80;99.90;;;;;;5012116;28;20046;-85
2022/09/12 03:42:42;;;;;;;43.67;28.13;;;12.80;99.90;;;;;;4981716;28;20412;-85
2022/09/12 03:45:09;;;;;;;42.80;29.17;;;12.80;99.90;;;;;;4993705;28;20134;-85
2022/09/12 03:47:35;;;;;;;47.42;28.52;;;12.80;99.90;;;;;;4993442;28;20135;-84
2022/09/12 03:50:02;;;;;;;46.97;29.58;;;12.70;99.90;;;;;;5011903;28;20484;-84
2022/09/12 03:52:27;;;;;;;46.38;29.05;;;12.80;99.90;;;;;;5012732;28;20124;-85
2022/09/12 03:54:53;;;;;;;49.03;30.52;;;12.70;99.90;;;;;;4989077;28;20085;-85
2022/09/12 03:57:19;;;;;;;50.10;31.17;;;12.70;99.90;;;;;;4993124;28;20057;-84
2022/09/12 03:59:44;;;;;;;52.90;29.38;;;12.70;99.90;;;;;;4996010;28;20046;-85
2022/09/12 04:02:13;;;;;;;53.05;31.00;;;12.70;99.90;;;;;;4984780;28;20404;-85
2022/09/12 04:04:42;;;;;;;52.63;31.92;;;12.70;99.90;;;;;;5007729;28;20435;-84
2022/09/12 04:07:09;;;;;;;47.53;29.92;;;12.60;99.90;;;;;;5014872;28;20107;-85
2022/09/12 04:09:34;;;;;;;47.45;29.25;;;12.60;99.90;;;;;;5006808;28;20055;-85
2022/09/12 04:12:00;;;;;;;48.33;31.30;;;12.60;99.90;;;;;;4995097;28;20042;-84
2022/09/12 04:14:26;;;;;;;45.60;29.65;;;12.60;99.90;;;;;;4979603;28;20042;-85
2022/09/12 04:16:52;;;;;;;54.90;31.55;;;12.60;99.90;;;;;;4998084;28;20052;-85
2022/09/12 04:19:17;;;;;;;56.67;32.35;;;12.60;99.90;;;;;;4994082;28;20046;-85
2022/09/12 04:21:43;;;;;;;65.25;34.85;;;12.60;99.90;;;;;;4993337;28;20041;-86
2022/09/12 04:24:09;;;;;;;72.80;37.92;;;12.50;99.90;;;;;;4990558;28;20050;-85
2022/09/12 04:26:34;;;;;;;67.63;35.97;;;12.50;99.90;;;;;;5004158;28;20045;-85
2022/09/12 04:29:00;;;;;;;60.80;34.38;;;12.60;99.90;;;;;;5013917;28;20046;-84
2022/09/12 04:31:26;;;;;;;74.75;38.40;;;12.60;99.90;;;;;;4983196;28;20042;-84
2022/09/12 04:33:56;;;;;;;62.30;35.72;;;12.50;99.90;;;;;;4985265;28;20121;-85
2022/09/12 04:36:23;;;;;;;70.25;37.92;;;12.70;99.90;;;;;;5009954;28;20046;-85
2022/09/12 04:38:49;;;;;;;68.43;36.80;;;12.60;99.90;;;;;;4996917;28;20043;-85
2022/09/12 04:41:29;;;;;;;66.22;36.20;;;12.70;99.90;;;;;;5011971;28;20069;-85
2022/09/12 04:43:57;;;;;;;73.88;39.70;;;12.70;99.90;;;;;;4984653;28;20400;-85
2022/09/12 04:46:24;;;;;;;70.60;38.17;;;12.70;99.90;;;;;;5010697;28;20100;-84
2022/09/12 04:48:50;;;;;;;61.38;35.47;;;12.80;99.90;;;;;;4987075;28;20063;-85
2022/09/12 04:51:19;;;;;;;75.40;38.90;;;12.80;99.90;;;;;;4988405;28;20057;-85
2022/09/12 04:53:51;;;;;;;75.03;40.13;;;12.80;99.90;;;;;;4964186;28;20046;-84
2022/09/12 04:56:18;;;;;;;77.30;40.13;;;12.80;99.90;;;;;;4987560;28;20055;-84
2022/09/12 04:58:44;;;;;;;88.00;42.40;;;12.90;99.90;;;;;;4982055;28;20038;-84
2022/09/12 05:01:16;;;;;;;87.63;41.53;;;12.90;99.90;;;;;;4959883;28;20125;-84
2022/09/12 05:03:43;;;;;;;83.60;43.67;;;13.00;99.90;;;;;;4995950;28;20054;-84
2022/09/12 05:06:12;;;;;;;75.88;40.50;;;13.00;99.90;;;;;;4982153;28;20043;-84
2022/09/12 05:08:38;;;;;;;71.82;40.38;;;13.10;99.90;;;;;;4986275;28;20054;-85
2022/09/12 05:11:05;;;;;;;70.88;39.85;;;13.10;99.90;;;;;;4981796;28;20053;-85
2022/09/12 05:13:32;;;;;;;79.82;42.40;;;13.20;99.90;;;;;;4977313;28;20519;-84
2022/09/12 05:16:00;;;;;;;71.90;40.85;;;13.20;99.90;;;;;;4991967;28;20047;-84
2022/09/12 05:18:26;;;;;;;76.70;42.95;;;13.20;99.90;;;;;;4956848;29;20531;-84
2022/09/12 05:20:53;;;;;;;55.85;32.95;;;13.30;99.90;;;;;;4979135;28;20378;-84
2022/09/12 05:23:20;;;;;;;73.53;42.25;;;13.30;99.90;;;;;;4989096;28;20046;-84
2022/09/12 05:25:53;;;;;;;66.57;40.97;;;13.30;99.90;;;;;;4972013;28;20459;-84
2022/09/12 05:28:21;;;;;;;70.63;41.67;;;13.40;99.90;;;;;;4945537;28;20086;-84
2022/09/12 05:30:47;;;;;;;74.30;41.53;;;13.40;99.90;;;;;;4980051;28;20048;-85
2022/09/12 05:33:14;;;;;;;59.97;36.35;;;13.50;99.90;;;;;;4973497;28;20054;-85
2022/09/12 05:35:50;;;;;;;75.55;41.83;;;13.50;99.90;;;;;;4983118;28;20070;-84
2022/09/12 05:38:16;;;;;;;60.85;38.78;;;13.60;99.90;;;;;;4984165;28;20118;-84
2022/09/12 05:40:42;;;;;;;72.45;40.70;;;13.60;99.90;;;;;;4955278;28;20548;-84
2022/09/12 05:43:07;;;;;;;67.55;38.72;;;13.60;99.90;;;;;;4968612;28;20055;-84
2022/09/12 05:45:33;;;;;;;73.00;40.58;;;13.60;99.90;;;;;;4988134;28;20104;-84
2022/09/12 05:47:59;;;;;;;66.60;40.75;;;13.70;99.90;;;;;;4978864;28;20051;-83
2022/09/12 05:50:25;;;;;;;53.33;32.08;;;13.70;99.90;;;;;;4983842;28;20441;-84
2022/09/12 05:52:50;;;;;;;71.47;40.50;;;13.80;99.90;;;;;;4962455;28;20381;-84
2022/09/12 05:55:16;;;;;;;63.83;38.20;;;13.80;99.90;;;;;;4959473;28;20050;-84
2022/09/12 05:57:45;;;;;;;67.65;39.00;;;13.90;99.90;;;;;;4990279;28;20415;-84
2022/09/12 06:00:13;;;;;;;69.88;39.17;;;13.90;99.90;;;;;;4984051;28;20039;-84
2022/09/12 06:02:39;;;;;;;66.45;38.17;;;13.90;99.90;;;;;;4969527;28;20045;-84
2022/09/12 06:05:05;;;;;;;34.42;24.10;;;14.00;99.90;;;;;;4989328;28;20049;-89
2022/09/12 06:07:31;;;;;;;61.40;37.00;;;14.00;99.90;;;;;;4977663;28;20046;-84
2022/09/12 06:09:58;;;;;;;59.35;37.47;;;14.00;99.90;;;;;;4976233;28;20401;-84
2022/09/12 06:12:25;;;;;;;57.92;37.15;;;14.00;99.90;;;;;;4973328;28;20057;-84
2022/09/12 06:14:51;;;;;;;59.75;37.00;;;14.00;99.90;;;;;;4987168;28;20038;-84
2022/09/12 06:17:17;;;;;;;65.05;37.35;;;14.10;99.90;;;;;;4973448;28;20042;-84
2022/09/12 06:19:44;;;;;;;59.40;37.50;;;14.10;99.90;;;;;;4943702;28;20038;-84
2022/09/12 06:22:10;;;;;;;60.00;37.50;;;14.10;99.90;;;;;;4984369;28;20057;-84
2022/09/12 06:24:36;;;;;;;54.28;33.90;;;14.20;99.90;;;;;;4963227;28;20042;-83
2022/09/12 06:27:01;;;;;;;61.58;37.58;;;14.20;99.90;;;;;;4957838;28;20121;-84
2022/09/12 06:29:27;;;;;;;61.83;37.80;;;14.20;99.90;;;;;;4961242;28;20046;-84
2022/09/12 06:31:53;;;;;;;56.72;36.30;;;14.30;99.90;;;;;;4975303;28;20039;-85
2022/09/12 06:34:19;;;;;;;47.38;31.73;;;14.30;99.90;;;;;;4961912;28;20143;-83
2022/09/12 06:36:47;;;;;;;58.10;35.78;;;14.30;99.90;;;;;;4974655;28;20097;-83
2022/09/12 06:39:16;;;;;;;48.13;32.22;;;14.30;99.90;;;;;;4947010;29;20110;-83
2022/09/12 06:41:42;;;;;;;56.92;35.63;;;14.30;99.90;;;;;;4953752;28;20492;-84
2022/09/12 06:44:14;;;;;;;53.80;35.35;;;14.40;99.90;;;;;;4960800;28;20112;-83
2022/09/12 06:46:41;;;;;;;52.03;32.22;;;14.50;99.90;;;;;;4979149;28;20047;-83
2022/09/12 06:49:07;;;;;;;55.05;35.13;;;14.50;99.90;;;;;;4982050;28;20058;-83
2022/09/12 06:51:33;;;;;;;55.13;34.80;;;14.60;99.90;;;;;;4961959;28;20047;-83
2022/09/12 06:53:59;;;;;;;55.92;34.97;;;14.60;99.90;;;;;;4965046;28;20050;-83
2022/09/12 06:56:27;;;;;;;55.65;37.47;;;14.60;99.90;;;;;;4964973;28;20066;-83
2022/09/12 06:58:55;;;;;;;55.88;35.50;;;14.60;99.90;;;;;;4948047;28;20133;-84
2022/09/12 07:01:26;;;;;;;53.50;34.30;;;14.70;99.90;;;;;;4981432;28;20043;-83
2022/09/12 07:03:58;;;;;;;54.83;35.50;;;14.80;99.90;;;;;;4966593;28;20047;-83
2022/09/12 07:06:30;;;;;;;48.65;32.63;;;14.80;99.90;;;;;;4979995;28;20046;-83
2022/09/12 07:09:00;;;;;;;50.38;33.58;;;14.80;99.90;;;;;;4981434;28;20051;-85
2022/09/12 07:11:30;;;;;;;53.58;34.92;;;14.90;99.90;;;;;;4962184;28;20606;-83
2022/09/12 07:13:57;;;;;;;50.88;33.53;;;14.90;99.90;;;;;;4962225;28;20075;-83
2022/09/12 07:16:24;;;;;;;48.35;32.60;;;15.00;99.90;;;;;;4983102;28;20061;-84
2022/09/12 07:19:01;;;;;;;51.92;34.05;;;15.00;99.90;;;;;;4964596;28;20492;-83
2022/09/12 07:21:28;;;;;;;50.38;33.15;;;15.10;99.90;;;;;;4977663;28;20125;-86
2022/09/12 07:23:56;;;;;;;50.20;33.22;;;15.10;99.90;;;;;;4942142;28;20054;-83
2022/09/12 07:26:23;;;;;;;49.05;33.78;;;15.20;99.90;;;;;;4957463;28;20047;-82
2022/09/12 07:28:53;;;;;;;50.83;33.08;;;15.20;99.90;;;;;;4974266;28;20047;-83
2022/09/12 07:31:19;;;;;;;47.42;31.45;;;15.30;99.90;;;;;;4974295;28;20042;-83
2022/09/12 07:33:46;;;;;;;49.65;34.25;;;15.40;99.90;;;;;;4957620;28;20143;-83
2022/09/12 07:36:13;;;;;;;50.17;32.13;;;15.40;99.90;;;;;;4957339;28;20401;-83
2022/09/12 07:38:40;;;;;;;45.03;30.98;;;15.50;99.90;;;;;;4974113;28;20055;-84
2022/09/12 07:41:10;;;;;;;48.53;32.50;;;15.60;99.90;;;;;;4974263;28;20497;-83
2022/09/12 07:43:36;;;;;;;50.38;32.67;;;15.60;99.90;;;;;;4974037;28;20496;-83
2022/09/12 07:46:02;;;;;;;52.55;33.78;;;15.70;99.90;;;;;;4974140;28;20046;-83
2022/09/12 07:48:27;;;;;;;51.95;33.33;;;15.80;99.90;;;;;;4973702;28;20055;-84
2022/09/12 07:51:01;;;;;;;48.22;31.08;;;15.90;99.90;;;;;;4956963;28;20047;-83
2022/09/12 07:53:31;;;;;;;49.15;32.67;;;15.90;99.90;;;;;;4956879;28;20061;-83
2022/09/12 07:55:57;;;;;;;53.47;33.15;;;16.00;99.90;;;;;;4974362;28;20043;-84
2022/09/12 07:58:23;;;;;;;50.78;32.60;;;16.10;99.90;;;;;;4973839;28;20054;-83
2022/09/12 08:00:50;;;;;;;47.58;32.53;;;16.20;99.90;;;;;;4974124;28;20400;-83
2022/09/12 08:03:16;;;;;;;51.00;32.30;;;16.20;99.90;;;;;;4941335;28;20485;-83
2022/09/12 08:05:42;;;;;;;52.72;32.80;;;16.30;99.90;;;;;;4956849;28;20054;-84
2022/09/12 08:08:08;;;;;;;53.95;33.00;;;16.50;99.90;;;;;;4957059;28;20389;-83
2022/09/12 08:10:34;;;;;;;57.08;34.97;;;16.50;99.90;;;;;;4973993;28;20082;-83
2022/09/12 08:13:00;;;;;;;51.85;33.90;;;16.70;99.90;;;;;;4974892;28;20457;-83
2022/09/12 08:15:25;;;;;;;55.47;35.65;;;16.70;99.90;;;;;;4977462;28;20051;-83
2022/09/12 08:17:51;;;;;;;48.88;30.75;;;16.70;99.90;;;;;;4977435;28;20393;-83
2022/09/12 08:20:17;;;;;;;54.65;34.35;;;16.80;99.90;;;;;;4977266;28;20050;-83
2022/09/12 08:22:43;;;;;;;54.75;34.08;;;16.80;99.90;;;;;;4977122;28;20055;-83
2022/09/12 08:25:09;;;;;;;53.35;32.55;;;16.80;99.90;;;;;;4977416;28;20061;-83
2022/09/12 08:27:35;;;;;;;50.85;33.33;;;17.00;99.90;;;;;;4960138;28;20400;-83
2022/09/12 08:30:01;;;;;;;55.92;32.67;;;17.20;99.90;;;;;;4960139;28;20042;-84
2022/09/12 08:32:26;;;;;;;51.08;32.40;;;17.50;99.90;;;;;;4977152;28;20050;-83
2022/09/12 08:34:52;;;;;;;51.53;33.92;;;17.70;99.90;;;;;;4944068;28;20401;-83
2022/09/12 08:37:18;;;;;;;55.65;32.83;;;17.90;99.90;;;;;;4976923;28;20057;-83
2022/09/12 08:39:44;;;;;;;52.50;33.25;;;18.10;99.90;;;;;;4960554;28;20039;-83
2022/09/12 08:42:19;;;;;;;54.75;32.65;;;18.20;99.90;;;;;;4959929;28;20050;-83
2022/09/12 08:45:14;;;;;;;54.03;33.72;;;18.30;99.90;;;;;;4959947;28;20043;-84
2022/09/12 08:47:43;;;;;;;50.20;32.60;;;18.40;99.90;;;;;;4959561;28;20105;-84
2022/09/12 08:50:13;;;;;;;60.42;32.75;;;18.40;99.90;;;;;;4959462;28;20051;-81
2022/09/12 08:52:58;;;;;;;51.03;32.13;;;18.50;99.90;;;;;;4976934;28;20054;-83
2022/09/12 08:55:36;;;;;;;51.17;31.90;;;18.60;99.90;;;;;;4959782;28;20417;-84
2022/09/12 08:58:22;;;;;;;53.13;32.05;;;18.70;99.90;;;;;;4959734;28;20050;-84
2022/09/12 09:01:19;;;;;;;50.78;31.77;;;18.90;99.90;;;;;;4978312;28;20043;-84
2022/09/12 09:04:22;;;;;;;48.85;29.92;;;19.10;99.90;;;;;;4977904;28;20133;-83
2022/09/12 09:07:05;;;;;;;44.42;29.35;;;19.40;99.90;;;;;;4959766;28;20523;-84
2022/09/12 09:09:56;;;;;;;46.65;29.98;;;19.60;99.90;;;;;;4967013;28;20047;-83
2022/09/12 09:12:48;;;;;;;49.95;29.70;;;19.70;99.90;;;;;;4978291;28;20082;-83
2022/09/12 09:15:25;;;;;;;44.25;28.77;;;19.80;99.90;;;;;;4981735;28;20097;-84
2022/09/12 09:18:00;;;;;;;44.38;29.10;;;19.80;99.90;;;;;;4979154;28;20043;-83
2022/09/12 09:20:37;;;;;;;42.75;27.75;;;19.90;99.90;;;;;;4950840;28;20569;-83
2022/09/12 09:23:14;;;;;;;42.38;28.02;;;19.90;99.90;;;;;;4982111;28;20055;-84
2022/09/12 09:25:52;;;;;;;41.95;30.05;;;20.00;99.90;;;;;;4976822;28;20440;-84
2022/09/12 09:28:21;;;;;;;42.63;27.98;;;20.10;99.90;;;;;;4959324;28;20055;-83
2022/09/12 09:30:48;;;;;;;39.20;26.75;;;20.20;99.90;;;;;;4976075;28;20485;-84
2022/09/12 09:33:23;;;;;;;41.08;27.02;;;20.30;99.90;;;;;;4976119;28;20051;-83
2022/09/12 09:35:59;;;;;;;40.13;28.00;;;20.60;99.90;;;;;;4976090;28;20113;-83
2022/09/12 09:38:52;;;;;;;40.65;25.88;;;21.20;99.90;;;;;;4976067;28;20047;-83
2022/09/12 09:41:51;;;;;;;35.45;25.48;;;21.80;99.90;;;;;;4943389;28;20066;-83
2022/09/12 09:44:17;;;;;;;33.72;24.67;;;22.60;99.90;;;;;;4976181;28;20408;-84
2022/09/12 09:46:43;;;;;;;35.95;24.52;;;23.50;99.90;;;;;;4959037;28;20047;-84
2022/09/12 09:49:13;;;;;;;35.38;24.40;;;24.20;99.90;;;;;;4958498;28;20055;-83
2022/09/12 09:51:40;;;;;;;37.90;26.40;;;24.60;99.90;;;;;;4975816;28;20047;-84
2022/09/12 09:54:31;;;;;;;38.15;24.73;;;24.70;99.90;;;;;;4958443;28;20051;-84
2022/09/12 09:56:57;;;;;;;34.55;24.55;;;24.90;99.90;;;;;;4974787;28;20058;-84
2022/09/12 09:59:27;;;;;;;36.38;25.45;;;25.30;99.90;;;;;;4957945;28;20047;-84
2022/09/12 10:02:02;;;;;;;31.85;24.13;;;25.70;99.90;;;;;;4975621;28;20047;-85
2022/09/12 10:04:34;;;;;;;32.05;23.50;;;25.90;99.90;;;;;;4958503;28;20051;-85
2022/09/12 10:07:02;;;;;;;31.73;24.25;;;26.30;99.90;;;;;;4975489;28;20050;-84
2022/09/12 10:09:33;;;;;;;34.20;25.50;;;26.50;99.90;;;;;;4975511;28;20389;-85
2022/09/12 10:12:01;;;;;;;37.75;26.85;;;26.00;99.90;;;;;;4975463;28;20109;-85
2022/09/12 10:14:37;;;;;;;37.92;25.98;;;25.40;99.90;;;;;;4975136;28;20492;-84
2022/09/12 10:17:27;;;;;;;32.13;23.27;;;25.50;99.90;;;;;;4975293;28;20056;-85
2022/09/12 10:19:53;;;;;;;31.27;24.00;;;25.90;99.90;;;;;;4958724;28;20050;-85
2022/09/12 10:22:23;;;;;;;33.28;22.55;;;26.30;99.90;;;;;;4958270;28;20290;-85
2022/09/12 10:24:55;;;;;;;33.72;24.30;;;26.40;99.90;;;;;;4958057;28;20086;-84
2022/09/12 10:27:25;;;;;;;33.08;23.80;;;26.30;95.00;;;;;;4975182;28;20432;-85
2022/09/12 10:30:04;;;;;;;33.58;23.50;;;26.20;99.90;;;;;;4957455;28;20082;-84
2022/09/12 10:32:40;;;;;;;32.38;22.63;;;26.50;98.50;;;;;;4975153;28;20058;-84
2022/09/12 10:35:30;;;;;;;28.10;22.55;;;26.70;99.90;;;;;;4974972;28;20057;-85
2022/09/12 10:38:01;;;;;;;29.48;22.55;;;27.10;98.70;;;;;;4975333;28;20390;-85
2022/09/12 10:40:38;;;;;;;31.63;22.13;;;27.20;91.20;;;;;;4975210;28;20374;-85
2022/09/12 10:43:27;;;;;;;30.85;22.90;;;27.30;79.50;;;;;;4975542;28;20046;-85
2022/09/12 10:45:58;;;;;;;27.77;19.88;;;27.40;75.20;;;;;;4958705;28;20054;-84
2022/09/12 10:48:31;;;;;;;29.15;21.20;;;27.20;75.80;;;;;;4957709;28;20139;-85
2022/09/12 10:51:01;;;;;;;26.67;21.02;;;26.70;78.00;;;;;;4975474;28;20054;-85
2022/09/12 10:53:39;;;;;;;25.63;19.88;;;26.20;88.30;;;;;;4975368;28;20047;-85
2022/09/12 10:56:27;;;;;;;26.55;20.67;;;26.30;89.70;;;;;;4974866;28;20051;-85
2022/09/12 10:59:18;;;;;;;30.60;20.38;;;26.60;94.80;;;;;;4957040;28;20513;-87
2022/09/12 11:01:47;;;;;;;24.38;20.15;;;27.40;79.80;;;;;;4942485;28;20053;-85
2022/09/12 11:04:28;;;;;;;27.10;19.40;;;28.00;73.10;;;;;;4958197;28;20050;-84
2022/09/12 11:07:00;;;;;;;19.92;15.55;;;28.40;68.20;;;;;;4975049;28;20386;-85
2022/09/12 11:09:35;;;;;;;21.40;16.25;;;28.60;69.50;;;;;;4974910;28;20081;-85
2022/09/12 11:12:37;;;;;;;25.10;17.92;;;28.80;67.90;;;;;;4957756;28;20047;-85
2022/09/12 11:15:13;;;;;;;16.42;13.57;;;29.10;63.40;;;;;;4957474;28;20138;-85
2022/09/12 11:17:59;;;;;;;15.52;11.93;;;29.20;65.50;;;;;;4941450;28;20059;-85
2022/09/12 11:20:31;;;;;;;14.13;11.70;;;29.30;62.50;;;;;;4958170;28;20130;-84
2022/09/12 11:23:36;;;;;;;18.50;11.05;;;29.20;63.30;;;;;;4974520;28;20050;-84
2022/09/12 11:26:30;;;;;;;17.63;12.82;;;29.30;59.60;;;;;;4957255;28;20050;-85
2022/09/12 11:29:19;;;;;;;17.80;13.15;;;29.40;63.10;;;;;;4942022;28;20086;-84
2022/09/12 11:32:20;;;;;;;16.58;13.20;;;29.40;63.90;;;;;;4975031;28;20062;-84
2022/09/12 11:35:05;;;;;;;15.98;12.98;;;29.10;62.70;;;;;;4941402;28;20381;-85
2022/09/12 11:37:59;;;;;;;18.42;14.90;;;28.50;65.40;;;;;;4974695;28;20050;-84
2022/09/12 11:40:36;;;;;;;18.80;13.57;;;28.10;64.90;;;;;;4957385;28;20055;-85
2022/09/12 11:43:30;;;;;;;19.55;14.15;;;27.50;68.80;;;;;;4974791;28;20062;-85
2022/09/12 11:46:03;;;;;;;21.25;13.98;;;27.20;69.40;;;;;;4948802;28;20067;-85
2022/09/12 11:48:35;;;;;;;17.08;14.10;;;27.00;74.10;;;;;;4975513;28;20066;-84
2022/09/12 11:51:03;;;;;;;9.07;6.97;;;27.10;75.40;;;;;;4977820;28;20085;-85
2022/09/12 11:53:36;;;;;;;8.30;5.70;;;27.30;69.70;;;;;;4960949;28;20054;-84
2022/09/12 11:56:15;;;;;;;8.77;6.22;;;27.40;69.20;;;;;;4977845;28;20047;-85
2022/09/12 11:58:48;;;;;;;10.07;6.60;;;27.80;62.90;;;;;;4960671;28;20101;-83
2022/09/12 12:01:13;;;;;;;12.07;7.25;;;27.90;63.70;;;;;;4961637;28;20055;-85
2022/09/12 12:03:44;;;;;;;11.40;8.70;;;28.00;62.90;;;;;;4960100;28;20051;-85
2022/09/12 12:06:18;;;;;;;12.27;8.07;;;28.10;62.50;;;;;;4961185;28;20050;-84
2022/09/12 12:08:45;;;;;;;8.90;7.68;;;27.90;61.90;;;;;;4961071;28;20162;-84
2022/09/12 12:11:27;;;;;;;11.73;8.10;;;27.80;63.00;;;;;;4977507;28;20047;-85
2022/09/12 12:14:01;;;;;;;12.35;7.88;;;27.60;63.00;;;;;;4977519;28;20057;-85
2022/09/12 12:16:28;;;;;;;10.13;8.23;;;27.60;64.10;;;;;;4978132;28;20105;-85
2022/09/12 12:19:05;;;;;;;11.45;6.60;;;27.60;64.00;;;;;;4960712;28;20098;-85
2022/09/12 12:21:44;;;;;;;9.82;5.63;;;27.40;62.90;;;;;;4977723;28;20091;-85
2022/09/12 12:24:18;;;;;;;6.85;4.70;;;27.20;63.70;;;;;;4960817;28;20078;-86
2022/09/12 12:27:21;;;;;;;5.50;4.32;;;27.10;62.80;;;;;;4977092;28;20548;-85
2022/09/12 12:29:47;;;;;;;7.93;6.53;;;27.10;63.30;;;;;;4977157;28;20050;-85
2022/09/12 12:32:15;;;;;;;10.27;6.15;;;27.20;62.20;;;;;;4977668;28;20568;-85
2022/09/12 12:34:42;;;;;;;8.63;6.18;;;27.40;64.10;;;;;;4977180;28;20058;-84
2022/09/12 12:37:20;;;;;;;9.45;7.40;;;27.60;63.00;;;;;;4977638;28;20086;-85
2022/09/12 12:39:49;;;;;;;8.25;6.93;;;27.90;61.40;;;;;;4960650;28;20129;-83
2022/09/12 12:42:36;;;;;;;9.52;7.78;;;27.80;61.10;;;;;;4980657;28;20047;-84
2022/09/12 12:45:08;;;;;;;9.82;8.43;;;27.70;61.50;;;;;;4963570;28;20097;-84
2022/09/12 12:47:36;;;;;;;9.43;7.88;;;27.60;61.40;;;;;;4960544;28;20515;-84
2022/09/12 12:50:10;;;;;;;12.55;6.75;;;27.50;61.20;;;;;;4978273;28;20510;-84
2022/09/12 12:52:49;;;;;;;10.10;6.40;;;27.40;62.90;;;;;;4980731;28;20051;-84
2022/09/12 12:55:41;;;;;;;8.40;5.93;;;27.10;64.30;;;;;;4964453;28;20408;-85
2022/09/12 12:58:18;;;;;;;9.50;5.97;;;26.90;63.10;;;;;;4938889;28;20059;-86